Latest Weather Observations for Strahan

IDT60801

Issued at 5:02 am EDT Tuesday 27 January 2015 (issued every 30 minutes, with the page automatically refreshed every 10 minutes)

About weather observations | Map of weather stations | Latest weather observations for TAS | Other Formats
Station Details ID: 097072 Name: STRAHAN AERODROME Lat: -42.16 Lon: 145.29 Height: 21.0 m
Data from the previous 72 hours. | See also: Recent months at Strahan
Date/Time
EDT
Temp
°C
App
Temp
°C
Dew
Point
Rel
Hum
%
Delta-T
°C
Wind Press
QNH
hPa
Press
MSL
hPa
Rain
since 9 am
mm
Dir
 
Spd
km/h
Gust
km/h
Spd
kts
Gust
kts
27/05:00am 7.7 5.2 6.5 92 0.5 NE 9 11 5 6 1017.1 1017.0 0.2
27/04:30am 7.5 4.9 6.3 92 0.5 NE 9 11 5 6 1017.0 1016.9 0.2
27/04:00am 7.7 5.5 6.3 91 0.6 NNE 7 11 4 6 1017.1 1017.0 0.2
27/03:30am 8.0 5.5 6.6 91 0.6 NNE 9 11 5 6 1017.5 1017.4 0.2
27/03:00am 8.2 5.7 6.7 90 0.7 NE 9 11 5 6 1017.8 1017.7 0.2
27/02:30am 8.7 6.3 6.8 88 0.9 NE 9 11 5 6 1018.0 1017.9 0.2
27/02:00am 9.1 7.1 7.2 88 0.9 NE 7 9 4 5 1018.1 1018.0 0.2
27/01:30am 9.5 7.2 7.6 88 0.9 NNE 9 13 5 7 1018.1 1018.0 0.2
27/01:00am 9.7 8.1 7.8 88 0.9 NNE 6 9 3 5 1018.1 1018.0 0.2
27/12:30am 9.6 7.4 7.7 88 0.9 NE 9 11 5 6 1018.0 1017.9 0.2
27/12:00am 9.3 7.4 7.4 88 0.9 NE 7 9 4 5 1018.1 1018.0 0.2
 
Date/Time
EDT
Temp
°C
App
Temp
°C
Dew
Point
Rel
Hum
%
Delta-T
°C
Wind Press
QNH
hPa
Press
MSL
hPa
Rain
since 9 am
mm
Dir
 
Spd
km/h
Gust
km/h
Spd
kts
Gust
kts
26/11:30pm 9.7 7.4 7.5 86 1.0 NNE 9 13 5 7 1018.3 1018.2 0.2
26/11:00pm 10.2 8.4 8.0 86 1.1 NNE 7 11 4 6 1018.2 1018.1 0.2
26/10:30pm 11.0 9.3 8.2 83 1.4 NE 7 9 4 5 1018.3 1018.2 0.2
26/10:00pm 11.5 9.9 7.8 78 1.8 NNE 6 7 3 4 1018.3 1018.2 0.2
26/09:30pm 11.6 10.9 7.1 74 2.2 CALM 0 6 0 3 1018.0 1017.9 0.2
26/09:00pm 12.2 10.4 7.3 72 2.4 W 6 11 3 6 1017.8 1017.7 0.2
26/08:30pm 13.0 11.0 7.2 68 2.8 W 7 9 4 5 1017.5 1017.4 0.2
26/08:00pm 13.5 11.5 7.1 65 3.1 W 7 11 4 6 1017.2 1017.1 0.2
26/07:30pm 13.6 11.1 6.7 63 3.3 W 9 13 5 7 1017.1 1017.0 0.2
26/07:00pm 13.7 10.3 5.8 59 3.7 W 13 19 7 10 1017.0 1016.9 0.2
26/06:30pm 15.1 11.3 5.9 54 4.4 W 15 22 8 12 1016.8 1016.7 0.2
26/06:00pm 14.8 10.8 5.1 52 4.6 W 15 22 8 12 1016.6 1016.5 0.2
26/05:30pm 16.2 11.6 5.5 49 5.1 WSW 19 28 10 15 1016.7 1016.6 0.2
26/05:00pm 16.4 11.6 5.4 48 5.3 W 20 28 11 15 1016.8 1016.7 0.2
26/04:30pm 16.6 12.4 5.6 48 5.3 W 17 24 9 13 1016.7 1016.6 0.2
26/04:00pm 16.7 11.8 5.3 47 5.5 W 20 26 11 14 1016.9 1016.8 0.2
26/03:30pm 17.0 11.5 5.9 48 5.4 W 24 30 13 16 1017.1 1017.0 0.2
26/03:00pm 16.5 11.5 6.3 51 5.0 WSW 22 33 12 18 1016.9 1016.8 0.2
26/02:30pm 16.9 12.0 5.2 46 5.6 W 20 30 11 16 1016.8 1016.7 0.2
26/02:00pm 17.2 12.8 7.3 52 5.0 W 20 30 11 16 1016.8 1016.7 0.2
26/01:30pm 16.5 11.8 6.1 50 5.1 W 20 32 11 17 1016.9 1016.8 0.2
26/01:00pm 15.5 10.7 5.4 51 4.8 WSW 20 32 11 17 1016.8 1016.7 0.2
26/12:30pm 16.7 13.2 8.9 60 4.0 WSW 17 22 9 12 1016.7 1016.6 0.2
26/12:00pm 16.2 11.2 8.2 59 4.0 WSW 24 32 13 17 1016.6 1016.5 0.2
26/11:30am 15.1 9.9 8.8 66 3.2 WSW 26 32 14 17 1016.5 1016.4 0.2
26/11:00am 13.7 8.7 8.1 69 2.8 WSW 24 32 13 17 1016.3 1016.2 0.0
26/10:30am 14.2 10.1 8.6 69 2.8 WSW 20 32 11 17 1015.7 1015.6 0.0
26/10:00am 13.4 9.1 7.2 66 3.0 WSW 19 24 10 13 1015.3 1015.3 0.0
26/09:30am 12.3 9.2 9.0 80 1.7 WSW 15 20 8 11 1015.1 1015.1 0.0
26/09:00am 12.6 9.5 8.7 77 1.9 WSW 15 22 8 12 1014.6 1014.6 5.6
26/08:30am 11.5 9.1 8.7 83 1.4 W 11 15 6 8 1014.3 1014.3 5.6
26/08:00am 10.9 10.1 9.7 92 0.6 SW 4 7 2 4 1013.7 1013.7 5.6
26/07:30am 10.0 8.0 8.8 92 0.6 S 9 13 5 7 1013.1 1013.1 5.6
26/07:28am 9.9 7.5 8.7 92 0.6 S 11 15 6 8 1013.1 1013.1 5.6
26/07:09am 9.6 5.5 7.9 89 0.8 SW 19 35 10 19 1013.1 1013.1 5.2
26/07:06am 10.0 7.1 8.1 88 0.9 SSW 13 35 7 19 1013.0 1013.0 5.0
26/07:00am 10.3 8.6 8.4 88 0.9 SSW 7 11 4 6 1012.7 1012.7 4.8
26/06:30am 10.1 7.9 8.0 87 1.0 WSW 9 13 5 7 1012.2 1012.2 4.8
26/06:00am 10.1 6.9 8.4 89 0.8 SW 15 24 8 13 1011.8 1011.8 4.8
26/05:30am 9.6 7.5 8.2 91 0.7 SW 9 11 5 6 1011.2 1011.2 4.8
26/05:00am 9.8 7.3 8.2 90 0.8 WSW 11 15 6 8 1011.0 1011.0 4.8
26/04:56am 9.7 6.8 8.1 90 0.8 WSW 13 17 7 9 1010.9 1010.9 4.8
26/04:39am 9.7 5.7 8.1 90 0.8 WSW 19 35 10 19 1010.9 1010.9 4.4
26/04:30am 9.9 7.4 8.0 88 0.9 S 11 15 6 8 1010.7 1010.7 3.8
26/04:00am 10.3 6.0 7.9 85 1.2 SW 20 33 11 18 1010.6 1010.6 3.8
26/03:30am 10.1 6.7 7.5 84 1.2 WSW 15 19 8 10 1010.4 1010.4 3.8
26/03:00am 8.9 6.5 6.9 87 0.9 SW 9 13 5 7 1010.1 1010.1 3.8
26/02:30am 10.4 6.4 8.2 86 1.1 W 19 35 10 19 1009.9 1009.9 3.8
26/02:00am 10.0 5.8 7.3 83 1.3 WSW 19 26 10 14 1009.7 1009.7 3.8
26/01:30am 10.4 6.8 8.2 86 1.1 WSW 17 24 9 13 1009.6 1009.6 3.6
26/01:11am 9.4 6.3 7.2 86 1.0 WSW 13 20 7 11 1009.5 1009.5 3.6
26/01:00am 9.6 5.2 7.4 86 1.0 WSW 20 37 11 20 1009.5 1009.5 3.6
26/12:54am 9.9 4.7 7.2 83 1.3 W 24 37 13 20 1009.6 1009.6 3.2
26/12:30am 11.1 5.9 7.2 77 1.9 WSW 24 30 13 16 1009.3 1009.3 2.4
26/12:00am 11.0 5.9 7.5 79 1.7 W 24 37 13 20 1009.0 1009.0 2.4
 
Date/Time
EDT
Temp
°C
App
Temp
°C
Dew
Point
Rel
Hum
%
Delta-T
°C
Wind Press
QNH
hPa
Press
MSL
hPa
Rain
since 9 am
mm
Dir
 
Spd
km/h
Gust
km/h
Spd
kts
Gust
kts
25/11:30pm 10.0 5.6 7.3 83 1.3 WSW 20 28 11 15 1008.6 1008.6 2.4
25/11:18pm 10.0 3.7 7.6 85 1.1 WSW 30 48 16 26 1008.6 1008.6 2.4
25/11:00pm 11.1 4.7 7.0 76 2.0 WNW 30 39 16 21 1008.4 1008.4 2.4
25/10:30pm 9.9 5.5 7.5 85 1.1 WNW 20 26 11 14 1008.3 1008.3 2.4
25/10:22pm 9.7 3.7 7.0 83 1.3 WNW 28 46 15 25 1008.2 1008.2 2.4
25/10:17pm 10.3 5.0 6.8 79 1.6 WNW 24 46 13 25 1008.2 1008.2 2.2
25/10:00pm 11.0 7.3 7.9 81 1.5 WNW 17 26 9 14 1008.1 1008.1 2.2
25/09:30pm 10.6 5.6 8.0 84 1.3 WNW 24 37 13 20 1007.8 1007.8 2.2
25/09:00pm 9.6 5.6 6.5 81 1.4 W 17 24 9 13 1007.4 1007.4 2.0
25/08:50pm 9.8 3.2 6.2 78 1.7 W 30 52 16 28 1007.4 1007.4 2.0
25/08:45pm 10.6 4.5 6.4 75 2.0 W 28 52 15 28 1007.4 1007.4 2.0
25/08:30pm 11.4 6.2 5.5 67 2.7 W 22 30 12 16 1007.2 1007.2 1.8
25/08:00pm 11.9 5.7 6.0 67 2.8 W 28 43 15 23 1006.7 1006.7 1.8
25/07:30pm 11.8 6.4 6.3 69 2.6 W 24 35 13 19 1006.3 1006.3 1.8
25/07:00pm 12.2 7.3 8.5 78 1.8 WSW 24 39 13 21 1005.8 1005.8 1.8
25/06:30pm 11.6 7.0 6.7 72 2.3 W 20 32 11 17 1005.3 1005.3 1.8
25/06:00pm 11.7 6.5 8.9 83 1.4 WSW 26 39 14 21 1005.2 1005.2 1.8
25/05:32pm 11.7 4.7 6.0 68 2.7 W 32 52 17 28 1004.8 1004.8 1.6
25/05:30pm 12.0 5.3 5.6 65 3.0 W 30 41 16 22 1004.8 1004.8 1.6
25/05:00pm 12.8 7.1 8.5 75 2.2 WNW 28 39 15 21 1004.2 1004.2 1.6
25/04:51pm 11.3 4.8 8.2 81 1.5 W 32 44 17 24 1004.2 1004.2 1.6
25/04:39pm 11.2 4.1 6.3 72 2.3 W 33 46 18 25 1004.1 1004.1 1.4
25/04:30pm 13.1 5.9 5.8 61 3.4 WNW 33 48 18 26 1003.9 1003.9 1.4
25/04:00pm 14.4 7.8 7.7 64 3.3 W 32 43 17 23 1003.5 1003.5 1.4
25/03:30pm 13.4 7.4 8.5 72 2.5 W 30 43 16 23 1003.5 1003.5 1.4
25/03:00pm 12.1 6.7 8.0 76 2.0 W 26 35 14 19 1003.5 1003.5 1.4
25/02:30pm 11.4 7.6 9.8 90 0.8 NNW 20 26 11 14 1003.4 1003.4 1.4
25/02:00pm 9.6 5.2 7.5 87 1.0 NNW 20 28 11 15 1003.4 1003.4 1.2
25/01:42pm 11.1 5.1 7.0 76 2.0 W 28 46 15 25 1003.0 1003.0 0.6
25/01:30pm 12.7 6.9 7.8 72 2.4 W 28 39 15 21 1002.9 1002.9 0.6
25/01:00pm 13.9 7.8 8.1 68 2.9 WNW 30 44 16 24 1002.4 1002.4 0.6
25/12:30pm 13.1 6.8 7.5 69 2.7 W 30 35 16 19 1002.3 1002.3 0.6
25/12:09pm 12.2 6.8 8.1 76 2.0 NW 26 54 14 29 1002.1 1002.1 0.6
25/12:08pm 12.2 6.8 7.9 75 2.1 NNW 26 54 14 29 1002.0 1002.0 0.6
25/12:00pm 15.2 11.8 10.6 74 2.4 NNW 19 26 10 14 1001.9 1001.9 0.6
25/11:30am 12.8 9.9 9.6 81 1.6 NNW 15 19 8 10 1002.0 1002.0 0.6
25/11:00am 11.2 7.6 8.4 83 1.4 WNW 17 20 9 11 1002.1 1002.1 0.6
25/10:35am 11.5 4.6 6.4 71 2.4 WNW 32 46 17 25 1002.1 1002.1 0.2
25/10:30am 12.7 6.7 7.2 69 2.7 WNW 28 43 15 23 1001.9 1001.9 0.2
25/10:00am 12.4 8.1 7.1 70 2.6 NW 19 26 10 14 1001.5 1001.5 0.2
25/09:30am 11.1 4.7 6.8 75 2.0 WNW 30 39 16 21 1001.7 1001.7 0.0
25/09:00am 13.8 9.2 8.0 68 2.9 W 22 33 12 18 1001.2 1001.2 16.4
25/08:30am 12.7 8.6 8.0 73 2.3 W 19 32 10 17 1001.1 1001.1 16.4
25/08:00am 11.2 8.6 7.9 80 1.6 WSW 11 17 6 9 1000.9 1000.9 16.4
25/07:30am 11.7 7.0 6.2 69 2.6 WNW 20 37 11 20 1000.4 1000.4 16.4
25/07:00am 11.4 7.6 7.7 78 1.8 W 17 28 9 15 999.8 999.8 16.4
25/06:30am 11.5 7.7 7.6 77 1.9 W 17 24 9 13 1000.0 1000.0 16.4
25/06:00am 11.5 7.6 8.5 82 1.5 WSW 19 24 10 13 999.6 999.6 16.4
25/05:30am 11.4 8.3 9.0 85 1.2 W 15 26 8 14 999.5 999.5 16.2
25/05:00am 11.4 8.8 9.5 88 1.0 W 13 15 7 8 999.3 999.3 16.2
25/04:32am 11.9 8.9 10.6 92 0.7 W 17 26 9 14 999.8 999.8 15.8
25/04:30am 11.8 8.8 10.5 92 0.7 W 17 26 9 14 999.8 999.8 15.8
25/04:12am 11.9 8.5 10.6 92 0.7 WNW 19 30 10 16 999.6 999.6 15.2
25/04:00am 11.8 8.1 10.2 90 0.8 W 20 26 11 14 999.4 999.4 14.6
25/03:30am 12.0 7.7 10.7 92 0.7 W 24 33 13 18 999.2 999.2 14.2
25/03:00am 12.8 9.8 12.6 99 0.1 W 20 30 11 16 999.3 999.3 13.8
25/02:53am 12.6 9.6 12.4 99 0.1 W 20 28 11 15 999.5 999.5 13.8
25/02:30am 12.7 10.3 12.5 99 0.1 NNW 17 22 9 12 999.4 999.4 12.8
25/02:00am 12.4 9.3 12.2 99 0.1 NW 20 28 11 15 999.5 999.5 11.8
25/01:30am 12.7 9.3 12.5 99 0.1 NW 22 30 12 16 999.2 999.2 9.0
25/01:29am 12.7 9.3 12.5 99 0.1 NW 22 30 12 16 999.3 999.3 9.0
25/01:17am 13.7 11.0 13.5 99 0.1 NW 20 30 11 16 999.4 999.4 8.2
25/01:00am 13.6 10.9 13.4 99 0.1 NNW 20 28 11 15 999.5 999.5 7.2
25/12:30am 13.2 7.8 12.1 93 0.6 NW 32 43 17 23 999.5 999.5 4.6
25/12:11am 14.8 10.0 11.8 82 1.6 N 28 37 15 20 998.8 998.8 0.4
25/12:00am 16.4 11.0 10.9 70 3.0 N 30 43 16 23 998.8 998.8 0.0
 
Date/Time
EDT
Temp
°C
App
Temp
°C
Dew
Point
Rel
Hum
%
Delta-T
°C
Wind Press
QNH
hPa
Press
MSL
hPa
Rain
since 9 am
mm
Dir
 
Spd
km/h
Gust
km/h
Spd
kts
Gust
kts
24/11:30pm 16.4 11.4 10.9 70 2.9 N 28 41 15 22 999.1 999.1 0.0
24/11:00pm 16.0 12.6 11.4 74 2.5 N 20 30 11 16 999.5 999.5 0.0
24/10:30pm 15.3 12.7 11.9 80 1.8 N 17 24 9 13 1000.0 1000.0 0.0
24/10:06pm 14.3 11.9 11.3 82 1.6 N 15 22 8 12 1000.0 1000.0 0.0
24/10:00pm 14.2 11.7 11.0 81 1.7 N 15 19 8 10 1000.0 1000.0 0.0
24/09:30pm 15.0 12.2 11.2 78 2.0 N 17 26 9 14 999.9 999.9 0.0
24/09:27pm 15.2 12.0 11.2 77 2.1 N 19 28 10 15 999.9 999.9 0.0
24/09:00pm 16.0 11.4 11.2 73 2.6 NNW 26 35 14 19 999.8 999.8 0.0
24/08:30pm 16.5 10.7 10.8 69 3.0 NNW 32 46 17 25 999.8 999.8 0.0
24/08:00pm 16.7 11.0 11.2 70 3.0 NNW 32 43 17 23 999.9 999.9 0.0
24/07:32pm 16.6 10.2 10.7 68 3.1 NNW 35 54 19 29 999.9 999.9 0.0
24/07:30pm 16.6 10.5 10.5 67 3.2 NNW 33 48 18 26 999.9 999.9 0.0
24/07:00pm 17.1 11.3 11.6 70 3.0 NNW 33 44 18 24 999.8 999.8 0.0
24/06:30pm 18.2 12.8 12.2 68 3.3 NW 32 41 17 22 999.6 999.6 0.0
24/06:00pm 20.6 14.5 10.4 52 5.6 NNW 33 50 18 27 999.8 999.8 0.0
24/05:30pm 20.1 15.0 10.5 54 5.2 NNW 28 41 15 22 1000.0 1000.0 0.0
24/05:00pm 20.1 14.2 10.5 54 5.2 NNW 32 43 17 23 1000.5 1000.5 0.0
24/04:30pm 19.0 13.0 10.8 59 4.4 NNW 33 48 18 26 1000.8 1000.8 0.0
24/04:08pm 18.5 11.4 10.8 61 4.2 NNW 39 57 21 31 1001.2 1001.2 0.0
24/04:00pm 18.8 11.1 10.1 57 4.7 NNW 41 57 22 31 1001.3 1001.3 0.0
24/03:30pm 18.4 12.7 11.9 66 3.6 NNW 33 46 18 25 1001.9 1001.9 0.0
24/03:00pm 18.2 11.6 11.3 64 3.8 NNW 37 46 20 25 1002.2 1002.2 0.0
24/02:30pm 19.1 14.0 11.9 63 4.0 NW 30 41 16 22 1002.4 1002.4 0.0
24/02:00pm 18.0 13.7 10.9 63 3.9 NW 24 30 13 16 1002.6 1002.6 0.0
24/01:30pm 19.7 16.1 10.7 56 4.9 NW 20 32 11 17 1002.5 1002.5 0.0
24/01:00pm 19.5 16.0 11.0 58 4.7 NW 20 30 11 16 1002.8 1002.8 0.0
24/12:30pm 17.7 12.7 9.6 59 4.3 NNW 26 35 14 19 1003.7 1003.7 0.0
24/12:00pm 17.1 13.1 8.3 56 4.5 N 19 32 10 17 1003.9 1003.9 0.0
24/11:30am 17.3 12.9 9.0 58 4.3 N 22 33 12 18 1004.3 1004.3 0.0
24/11:00am 16.5 12.6 8.7 60 4.0 N 19 26 10 14 1004.7 1004.7 0.0
24/10:30am 15.7 12.1 8.4 62 3.7 N 17 24 9 13 1005.2 1005.2 0.0
24/10:00am 16.3 12.7 8.5 60 4.0 NNE 17 26 9 14 1005.1 1005.1 0.0
24/09:30am 15.5 11.6 8.7 64 3.5 N 19 26 10 14 1005.4 1005.4 0.0
24/09:00am 14.3 10.8 8.9 70 2.7 NNE 17 28 9 15 1005.6 1005.6 0.2
24/08:30am 13.0 9.9 8.7 75 2.2 NNE 15 22 8 12 1005.5 1005.5 0.2
24/08:00am 11.0 7.6 7.5 79 1.7 NNE 15 20 8 11 1005.4 1005.4 0.2
24/07:30am 9.5 6.0 7.1 85 1.1 NNE 15 20 8 11 1005.2 1005.2 0.2
24/07:00am 8.0 4.6 6.1 88 0.9 NNE 13 17 7 9 1005.2 1005.2 0.2
24/06:30am 7.3 3.1 5.8 90 0.7 NNE 17 20 9 11 1005.1 1005.1 0.2
24/06:00am 7.4 3.6 6.0 91 0.6 NNE 15 20 8 11 1004.9 1004.9 0.2
24/05:30am 7.2 3.0 5.8 91 0.6 NNE 17 20 9 11 1005.4 1005.4 0.2

Other Formats:

Comma delimited format used in spreadsheet applications
http://www.bom.gov.au/fwo/IDT60801/IDT60801.94956.axf

JavaScript Object Notation format (JSON) in row-major order
http://www.bom.gov.au/fwo/IDT60801/IDT60801.94956.json